sensor_id;sensor_type;location;lat;lon;timestamp;temperature;humidity
40589;DHT22;26297;49.450;6.640;2022-08-14T00:02:32;21.10;93.80
40589;DHT22;26297;49.450;6.640;2022-08-14T00:05:35;21.10;92.60
40589;DHT22;26297;49.450;6.640;2022-08-14T00:08:38;21.10;94.10
40589;DHT22;26297;49.450;6.640;2022-08-14T00:11:41;21.10;95.30
40589;DHT22;26297;49.450;6.640;2022-08-14T00:14:44;21.00;95.30
40589;DHT22;26297;49.450;6.640;2022-08-14T00:17:48;21.00;94.50
40589;DHT22;26297;49.450;6.640;2022-08-14T00:20:51;21.00;95.20
40589;DHT22;26297;49.450;6.640;2022-08-14T00:23:55;20.90;93.30
40589;DHT22;26297;49.450;6.640;2022-08-14T00:26:58;20.90;94.10
40589;DHT22;26297;49.450;6.640;2022-08-14T00:30:04;20.90;93.40
40589;DHT22;26297;49.450;6.640;2022-08-14T00:33:08;20.90;94.10
40589;DHT22;26297;49.450;6.640;2022-08-14T00:36:11;20.80;93.90
40589;DHT22;26297;49.450;6.640;2022-08-14T00:39:15;20.80;93.60
40589;DHT22;26297;49.450;6.640;2022-08-14T00:42:19;20.80;94.60
40589;DHT22;26297;49.450;6.640;2022-08-14T00:45:23;20.70;93.80
40589;DHT22;26297;49.450;6.640;2022-08-14T00:48:26;20.80;94.20
40589;DHT22;26297;49.450;6.640;2022-08-14T00:51:29;20.70;94.00
40589;DHT22;26297;49.450;6.640;2022-08-14T00:54:35;20.70;94.30
40589;DHT22;26297;49.450;6.640;2022-08-14T00:57:40;20.70;94.10
40589;DHT22;26297;49.450;6.640;2022-08-14T01:00:44;20.70;94.70
40589;DHT22;26297;49.450;6.640;2022-08-14T01:03:47;20.70;94.30
40589;DHT22;26297;49.450;6.640;2022-08-14T01:06:51;20.60;95.30
40589;DHT22;26297;49.450;6.640;2022-08-14T01:09:57;20.60;95.50
40589;DHT22;26297;49.450;6.640;2022-08-14T01:13:01;20.60;94.90
40589;DHT22;26297;49.450;6.640;2022-08-14T01:16:06;20.60;95.00
40589;DHT22;26297;49.450;6.640;2022-08-14T01:19:09;20.60;95.60
40589;DHT22;26297;49.450;6.640;2022-08-14T01:22:32;20.60;96.00
40589;DHT22;26297;49.450;6.640;2022-08-14T01:25:37;20.50;97.30
40589;DHT22;26297;49.450;6.640;2022-08-14T01:28:41;20.50;94.80
40589;DHT22;26297;49.450;6.640;2022-08-14T01:31:45;20.50;96.00
40589;DHT22;26297;49.450;6.640;2022-08-14T01:34:54;20.50;95.50
40589;DHT22;26297;49.450;6.640;2022-08-14T01:37:57;20.40;96.40
40589;DHT22;26297;49.450;6.640;2022-08-14T01:41:09;20.40;96.00
40589;DHT22;26297;49.450;6.640;2022-08-14T01:44:14;20.40;98.30
40589;DHT22;26297;49.450;6.640;2022-08-14T01:47:18;20.50;99.10
40589;DHT22;26297;49.450;6.640;2022-08-14T01:50:21;20.60;99.90
40589;DHT22;26297;49.450;6.640;2022-08-14T01:53:24;20.70;97.80
40589;DHT22;26297;49.450;6.640;2022-08-14T01:56:31;20.70;97.50
40589;DHT22;26297;49.450;6.640;2022-08-14T01:59:41;20.60;94.60
40589;DHT22;26297;49.450;6.640;2022-08-14T02:02:46;20.60;96.40
40589;DHT22;26297;49.450;6.640;2022-08-14T02:05:49;20.60;94.50
40589;DHT22;26297;49.450;6.640;2022-08-14T02:08:52;20.50;96.20
40589;DHT22;26297;49.450;6.640;2022-08-14T02:11:56;20.50;95.50
40589;DHT22;26297;49.450;6.640;2022-08-14T02:14:59;20.50;96.50
40589;DHT22;26297;49.450;6.640;2022-08-14T02:18:03;20.40;96.60
40589;DHT22;26297;49.450;6.640;2022-08-14T02:21:06;20.40;95.20
40589;DHT22;26297;49.450;6.640;2022-08-14T02:24:11;20.40;95.30
40589;DHT22;26297;49.450;6.640;2022-08-14T02:27:14;20.30;96.10
40589;DHT22;26297;49.450;6.640;2022-08-14T02:30:21;20.20;97.20
40589;DHT22;26297;49.450;6.640;2022-08-14T02:33:24;20.20;96.90
40589;DHT22;26297;49.450;6.640;2022-08-14T02:36:26;20.20;96.20
40589;DHT22;26297;49.450;6.640;2022-08-14T02:39:31;20.10;96.10
40589;DHT22;26297;49.450;6.640;2022-08-14T02:42:38;20.10;96.20
40589;DHT22;26297;49.450;6.640;2022-08-14T02:45:41;20.10;97.40
40589;DHT22;26297;49.450;6.640;2022-08-14T02:48:47;20.10;98.30
40589;DHT22;26297;49.450;6.640;2022-08-14T02:51:50;20.00;97.20
40589;DHT22;26297;49.450;6.640;2022-08-14T02:54:53;20.10;99.30
40589;DHT22;26297;49.450;6.640;2022-08-14T02:57:57;20.10;97.50
40589;DHT22;26297;49.450;6.640;2022-08-14T03:01:00;20.20;99.90
40589;DHT22;26297;49.450;6.640;2022-08-14T03:04:03;20.20;99.90
40589;DHT22;26297;49.450;6.640;2022-08-14T03:07:08;20.30;98.90
40589;DHT22;26297;49.450;6.640;2022-08-14T03:10:11;20.20;97.10
40589;DHT22;26297;49.450;6.640;2022-08-14T03:13:14;20.20;96.90
40589;DHT22;26297;49.450;6.640;2022-08-14T03:16:20;20.20;95.80
40589;DHT22;26297;49.450;6.640;2022-08-14T03:19:23;20.10;96.60
40589;DHT22;26297;49.450;6.640;2022-08-14T03:22:26;20.10;96.10
40589;DHT22;26297;49.450;6.640;2022-08-14T03:25:31;20.00;96.40
40589;DHT22;26297;49.450;6.640;2022-08-14T03:28:36;20.00;96.80
40589;DHT22;26297;49.450;6.640;2022-08-14T03:31:42;20.00;98.10
40589;DHT22;26297;49.450;6.640;2022-08-14T03:34:45;19.90;98.30
40589;DHT22;26297;49.450;6.640;2022-08-14T03:37:49;19.90;99.90
40589;DHT22;26297;49.450;6.640;2022-08-14T03:40:54;19.80;97.90
40589;DHT22;26297;49.450;6.640;2022-08-14T03:44:00;19.80;98.10
40589;DHT22;26297;49.450;6.640;2022-08-14T03:47:03;19.70;99.00
40589;DHT22;26297;49.450;6.640;2022-08-14T03:50:08;19.80;98.10
40589;DHT22;26297;49.450;6.640;2022-08-14T03:53:14;19.70;99.50
40589;DHT22;26297;49.450;6.640;2022-08-14T03:56:17;19.70;98.10
40589;DHT22;26297;49.450;6.640;2022-08-14T03:59:20;19.70;99.20
40589;DHT22;26297;49.450;6.640;2022-08-14T04:02:23;19.70;99.10
40589;DHT22;26297;49.450;6.640;2022-08-14T04:05:27;19.60;99.80
40589;DHT22;26297;49.450;6.640;2022-08-14T04:08:34;19.60;98.60
40589;DHT22;26297;49.450;6.640;2022-08-14T04:11:37;19.60;99.30
40589;DHT22;26297;49.450;6.640;2022-08-14T04:14:40;19.60;99.80
40589;DHT22;26297;49.450;6.640;2022-08-14T04:17:46;19.60;99.40
40589;DHT22;26297;49.450;6.640;2022-08-14T04:20:49;19.60;99.40
40589;DHT22;26297;49.450;6.640;2022-08-14T04:23:54;19.60;99.90
40589;DHT22;26297;49.450;6.640;2022-08-14T04:26:58;19.50;99.50
40589;DHT22;26297;49.450;6.640;2022-08-14T04:30:03;19.60;99.10
40589;DHT22;26297;49.450;6.640;2022-08-14T04:33:07;19.60;99.50
40589;DHT22;26297;49.450;6.640;2022-08-14T04:36:11;19.60;99.90
40589;DHT22;26297;49.450;6.640;2022-08-14T04:39:14;19.60;99.60
40589;DHT22;26297;49.450;6.640;2022-08-14T04:42:36;19.60;99.70
40589;DHT22;26297;49.450;6.640;2022-08-14T04:45:58;19.70;99.30
40589;DHT22;26297;49.450;6.640;2022-08-14T04:49:03;19.60;99.70
40589;DHT22;26297;49.450;6.640;2022-08-14T04:52:06;19.60;99.90
40589;DHT22;26297;49.450;6.640;2022-08-14T04:55:10;19.60;99.90
40589;DHT22;26297;49.450;6.640;2022-08-14T04:58:15;19.60;99.90
40589;DHT22;26297;49.450;6.640;2022-08-14T05:01:19;19.60;99.90
40589;DHT22;26297;49.450;6.640;2022-08-14T05:04:22;19.60;99.90
40589;DHT22;26297;49.450;6.640;2022-08-14T05:07:26;19.60;99.90
40589;DHT22;26297;49.450;6.640;2022-08-14T05:10:30;19.60;99.90
40589;DHT22;26297;49.450;6.640;2022-08-14T05:13:34;19.60;99.70
40589;DHT22;26297;49.450;6.640;2022-08-14T05:16:39;19.60;99.90
40589;DHT22;26297;49.450;6.640;2022-08-14T05:19:42;19.60;99.90
40589;DHT22;26297;49.450;6.640;2022-08-14T05:22:46;19.60;99.90
40589;DHT22;26297;49.450;6.640;2022-08-14T05:25:50;19.60;99.90
40589;DHT22;26297;49.450;6.640;2022-08-14T05:28:56;19.60;99.90
40589;DHT22;26297;49.450;6.640;2022-08-14T05:32:00;19.60;99.90
40589;DHT22;26297;49.450;6.640;2022-08-14T05:35:09;19.60;99.90
40589;DHT22;26297;49.450;6.640;2022-08-14T05:38:17;19.60;99.90
40589;DHT22;26297;49.450;6.640;2022-08-14T05:41:21;19.60;99.90
40589;DHT22;26297;49.450;6.640;2022-08-14T05:44:24;19.60;99.90
40589;DHT22;26297;49.450;6.640;2022-08-14T05:47:27;19.60;99.90
40589;DHT22;26297;49.450;6.640;2022-08-14T05:50:30;19.60;99.90
40589;DHT22;26297;49.450;6.640;2022-08-14T05:53:33;19.60;99.90
40589;DHT22;26297;49.450;6.640;2022-08-14T05:56:36;19.70;99.90
40589;DHT22;26297;49.450;6.640;2022-08-14T05:59:40;19.70;99.90
40589;DHT22;26297;49.450;6.640;2022-08-14T06:02:44;19.70;99.90
40589;DHT22;26297;49.450;6.640;2022-08-14T06:05:49;19.80;99.90
40589;DHT22;26297;49.450;6.640;2022-08-14T06:08:52;19.80;99.90
40589;DHT22;26297;49.450;6.640;2022-08-14T06:11:56;19.90;99.90
40589;DHT22;26297;49.450;6.640;2022-08-14T06:14:59;19.90;99.90
40589;DHT22;26297;49.450;6.640;2022-08-14T06:18:02;19.90;99.90
40589;DHT22;26297;49.450;6.640;2022-08-14T06:21:06;20.00;99.90
40589;DHT22;26297;49.450;6.640;2022-08-14T06:24:15;20.10;99.90
40589;DHT22;26297;49.450;6.640;2022-08-14T06:27:18;20.10;99.90
40589;DHT22;26297;49.450;6.640;2022-08-14T06:30:24;20.10;99.90
40589;DHT22;26297;49.450;6.640;2022-08-14T06:33:30;20.20;99.90
40589;DHT22;26297;49.450;6.640;2022-08-14T06:36:33;20.20;99.90
40589;DHT22;26297;49.450;6.640;2022-08-14T06:39:39;20.30;99.90
40589;DHT22;26297;49.450;6.640;2022-08-14T06:42:42;20.40;99.90
40589;DHT22;26297;49.450;6.640;2022-08-14T06:45:46;20.50;99.90
40589;DHT22;26297;49.450;6.640;2022-08-14T06:48:49;20.60;99.90
40589;DHT22;26297;49.450;6.640;2022-08-14T06:51:52;20.70;99.90
40589;DHT22;26297;49.450;6.640;2022-08-14T06:54:56;20.70;99.90
40589;DHT22;26297;49.450;6.640;2022-08-14T06:57:59;20.70;99.90
40589;DHT22;26297;49.450;6.640;2022-08-14T07:01:02;20.80;99.90
40589;DHT22;26297;49.450;6.640;2022-08-14T07:04:24;20.90;99.90
40589;DHT22;26297;49.450;6.640;2022-08-14T07:07:46;21.00;99.90
40589;DHT22;26297;49.450;6.640;2022-08-14T07:10:51;21.10;99.90
40589;DHT22;26297;49.450;6.640;2022-08-14T07:13:55;21.10;99.90
40589;DHT22;26297;49.450;6.640;2022-08-14T07:16:58;21.20;99.90
40589;DHT22;26297;49.450;6.640;2022-08-14T07:20:01;21.30;99.90
40589;DHT22;26297;49.450;6.640;2022-08-14T07:23:05;21.30;99.90
40589;DHT22;26297;49.450;6.640;2022-08-14T07:26:10;21.40;99.90
40589;DHT22;26297;49.450;6.640;2022-08-14T07:29:15;21.40;99.90
40589;DHT22;26297;49.450;6.640;2022-08-14T07:32:18;21.50;99.90
40589;DHT22;26297;49.450;6.640;2022-08-14T07:35:21;21.50;99.90
40589;DHT22;26297;49.450;6.640;2022-08-14T07:38:25;21.50;99.90
40589;DHT22;26297;49.450;6.640;2022-08-14T07:41:30;21.60;99.90
40589;DHT22;26297;49.450;6.640;2022-08-14T07:44:33;21.60;99.90
40589;DHT22;26297;49.450;6.640;2022-08-14T07:47:42;21.60;99.90
40589;DHT22;26297;49.450;6.640;2022-08-14T07:50:46;21.70;99.90
40589;DHT22;26297;49.450;6.640;2022-08-14T07:53:52;21.80;99.90
40589;DHT22;26297;49.450;6.640;2022-08-14T07:56:59;21.80;99.90
40589;DHT22;26297;49.450;6.640;2022-08-14T08:00:05;21.90;99.90
40589;DHT22;26297;49.450;6.640;2022-08-14T08:03:12;21.90;99.90
40589;DHT22;26297;49.450;6.640;2022-08-14T08:06:16;21.90;99.90
40589;DHT22;26297;49.450;6.640;2022-08-14T08:09:23;21.90;99.90
40589;DHT22;26297;49.450;6.640;2022-08-14T08:12:27;21.90;99.90
40589;DHT22;26297;49.450;6.640;2022-08-14T08:15:34;21.90;99.90
40589;DHT22;26297;49.450;6.640;2022-08-14T08:18:37;22.00;99.90
40589;DHT22;26297;49.450;6.640;2022-08-14T08:21:40;22.00;99.90
40589;DHT22;26297;49.450;6.640;2022-08-14T08:24:44;22.00;99.90
40589;DHT22;26297;49.450;6.640;2022-08-14T08:28:03;22.00;99.90
40589;DHT22;26297;49.450;6.640;2022-08-14T08:31:06;22.00;99.90
40589;DHT22;26297;49.450;6.640;2022-08-14T08:34:10;22.00;99.90
40589;DHT22;26297;49.450;6.640;2022-08-14T08:37:13;22.00;99.90
40589;DHT22;26297;49.450;6.640;2022-08-14T08:40:24;22.00;99.80
40589;DHT22;26297;49.450;6.640;2022-08-14T08:43:30;22.00;99.90
40589;DHT22;26297;49.450;6.640;2022-08-14T08:46:34;22.00;99.90
40589;DHT22;26297;49.450;6.640;2022-08-14T08:49:40;22.00;99.90
40589;DHT22;26297;49.450;6.640;2022-08-14T08:52:51;22.00;99.90
40589;DHT22;26297;49.450;6.640;2022-08-14T08:55:55;22.10;99.90
40589;DHT22;26297;49.450;6.640;2022-08-14T08:58:58;22.10;99.90
40589;DHT22;26297;49.450;6.640;2022-08-14T09:02:05;22.20;99.90
40589;DHT22;26297;49.450;6.640;2022-08-14T09:05:08;22.10;98.30
40589;DHT22;26297;49.450;6.640;2022-08-14T09:08:17;22.10;99.90
40589;DHT22;26297;49.450;6.640;2022-08-14T09:11:21;22.10;98.20
40589;DHT22;26297;49.450;6.640;2022-08-14T09:14:28;22.00;97.00
40589;DHT22;26297;49.450;6.640;2022-08-14T09:17:31;22.00;96.80
40589;DHT22;26297;49.450;6.640;2022-08-14T09:20:37;22.00;97.00
40589;DHT22;26297;49.450;6.640;2022-08-14T09:23:42;22.00;98.30
40589;DHT22;26297;49.450;6.640;2022-08-14T09:26:46;22.00;99.90
40589;DHT22;26297;49.450;6.640;2022-08-14T09:29:52;22.20;95.90
40589;DHT22;26297;49.450;6.640;2022-08-14T09:33:13;22.20;98.30
40589;DHT22;26297;49.450;6.640;2022-08-14T09:36:39;22.30;97.40
40589;DHT22;26297;49.450;6.640;2022-08-14T09:46:53;22.40;93.70
40589;DHT22;26297;49.450;6.640;2022-08-14T09:49:57;22.30;95.00
40589;DHT22;26297;49.450;6.640;2022-08-14T09:53:03;22.40;95.90
40589;DHT22;26297;49.450;6.640;2022-08-14T09:56:07;22.30;96.60
40589;DHT22;26297;49.450;6.640;2022-08-14T09:59:11;22.30;94.70
40589;DHT22;26297;49.450;6.640;2022-08-14T10:05:29;22.30;95.70
40589;DHT22;26297;49.450;6.640;2022-08-14T10:08:51;22.40;92.00
40589;DHT22;26297;49.450;6.640;2022-08-14T10:11:57;22.50;92.40
40589;DHT22;26297;49.450;6.640;2022-08-14T10:15:00;22.60;91.50
40589;DHT22;26297;49.450;6.640;2022-08-14T10:18:08;22.70;88.10
40589;DHT22;26297;49.450;6.640;2022-08-14T10:21:15;22.80;87.90
40589;DHT22;26297;49.450;6.640;2022-08-14T10:24:24;22.80;94.70
40589;DHT22;26297;49.450;6.640;2022-08-14T10:27:28;22.80;90.70
40589;DHT22;26297;49.450;6.640;2022-08-14T10:30:33;22.80;93.90
40589;DHT22;26297;49.450;6.640;2022-08-14T10:33:40;22.70;92.00
40589;DHT22;26297;49.450;6.640;2022-08-14T10:36:44;22.60;98.60
40589;DHT22;26297;49.450;6.640;2022-08-14T10:40:01;22.50;94.30
40589;DHT22;26297;49.450;6.640;2022-08-14T10:43:19;22.50;96.60
40589;DHT22;26297;49.450;6.640;2022-08-14T10:46:22;22.50;93.30
40589;DHT22;26297;49.450;6.640;2022-08-14T10:49:26;22.50;91.10
40589;DHT22;26297;49.450;6.640;2022-08-14T10:52:31;22.50;89.20
40589;DHT22;26297;49.450;6.640;2022-08-14T10:55:37;22.40;91.00
40589;DHT22;26297;49.450;6.640;2022-08-14T10:58:43;22.40;90.50
40589;DHT22;26297;49.450;6.640;2022-08-14T11:01:47;22.40;90.90
40589;DHT22;26297;49.450;6.640;2022-08-14T11:05:12;22.30;95.90
40589;DHT22;26297;49.450;6.640;2022-08-14T11:08:30;22.30;99.90
40589;DHT22;26297;49.450;6.640;2022-08-14T11:11:42;22.40;95.20
40589;DHT22;26297;49.450;6.640;2022-08-14T11:14:56;22.50;96.10
40589;DHT22;26297;49.450;6.640;2022-08-14T11:18:02;22.50;94.10
40589;DHT22;26297;49.450;6.640;2022-08-14T11:21:06;22.70;95.20
40589;DHT22;26297;49.450;6.640;2022-08-14T11:24:13;22.70;92.10
40589;DHT22;26297;49.450;6.640;2022-08-14T11:27:18;22.70;97.40
40589;DHT22;26297;49.450;6.640;2022-08-14T11:30:29;22.60;89.00
40589;DHT22;26297;49.450;6.640;2022-08-14T11:33:33;22.60;94.90
40589;DHT22;26297;49.450;6.640;2022-08-14T11:36:38;22.70;95.80
40589;DHT22;26297;49.450;6.640;2022-08-14T11:39:48;22.80;89.30
40589;DHT22;26297;49.450;6.640;2022-08-14T11:42:52;22.80;94.60
40589;DHT22;26297;49.450;6.640;2022-08-14T11:45:59;22.80;90.60
40589;DHT22;26297;49.450;6.640;2022-08-14T11:49:03;22.70;94.30
40589;DHT22;26297;49.450;6.640;2022-08-14T11:52:06;22.50;93.10
40589;DHT22;26297;49.450;6.640;2022-08-14T11:55:12;22.50;93.50
40589;DHT22;26297;49.450;6.640;2022-08-14T11:58:15;22.50;90.90
40589;DHT22;26297;49.450;6.640;2022-08-14T12:01:27;22.50;89.50
40589;DHT22;26297;49.450;6.640;2022-08-14T12:04:31;22.50;97.90
40589;DHT22;26297;49.450;6.640;2022-08-14T12:07:34;22.50;89.00
40589;DHT22;26297;49.450;6.640;2022-08-14T12:10:40;22.50;95.10
40589;DHT22;26297;49.450;6.640;2022-08-14T12:13:44;22.50;94.00
40589;DHT22;26297;49.450;6.640;2022-08-14T12:17:01;22.60;93.30
40589;DHT22;26297;49.450;6.640;2022-08-14T12:20:06;22.80;91.80
40589;DHT22;26297;49.450;6.640;2022-08-14T12:23:21;22.80;86.80
40589;DHT22;26297;49.450;6.640;2022-08-14T12:26:25;22.70;90.80
40589;DHT22;26297;49.450;6.640;2022-08-14T12:29:29;22.70;95.90
40589;DHT22;26297;49.450;6.640;2022-08-14T12:32:41;22.70;93.10
40589;DHT22;26297;49.450;6.640;2022-08-14T12:35:45;22.70;91.20
40589;DHT22;26297;49.450;6.640;2022-08-14T12:38:48;22.70;89.70
40589;DHT22;26297;49.450;6.640;2022-08-14T12:41:56;22.80;86.10
40589;DHT22;26297;49.450;6.640;2022-08-14T12:45:09;22.80;90.00
40589;DHT22;26297;49.450;6.640;2022-08-14T12:48:16;22.70;92.00
40589;DHT22;26297;49.450;6.640;2022-08-14T12:51:23;22.60;88.30
40589;DHT22;26297;49.450;6.640;2022-08-14T12:54:27;22.60;98.90
40589;DHT22;26297;49.450;6.640;2022-08-14T12:57:42;22.50;91.00
40589;DHT22;26297;49.450;6.640;2022-08-14T13:00:47;22.50;90.70
40589;DHT22;26297;49.450;6.640;2022-08-14T13:04:13;22.50;96.60
40589;DHT22;26297;49.450;6.640;2022-08-14T13:07:16;22.60;90.20
40589;DHT22;26297;49.450;6.640;2022-08-14T13:10:20;22.70;87.00
40589;DHT22;26297;49.450;6.640;2022-08-14T13:13:24;22.60;87.80
40589;DHT22;26297;49.450;6.640;2022-08-14T13:16:31;22.50;89.40
40589;DHT22;26297;49.450;6.640;2022-08-14T13:19:34;22.40;92.10
40589;DHT22;26297;49.450;6.640;2022-08-14T13:22:43;22.40;93.70
40589;DHT22;26297;49.450;6.640;2022-08-14T13:25:49;22.30;88.20
40589;DHT22;26297;49.450;6.640;2022-08-14T13:28:55;22.50;86.40
40589;DHT22;26297;49.450;6.640;2022-08-14T13:31:59;22.50;94.20
40589;DHT22;26297;49.450;6.640;2022-08-14T13:35:03;22.60;93.40
40589;DHT22;26297;49.450;6.640;2022-08-14T13:38:06;22.70;98.10
40589;DHT22;26297;49.450;6.640;2022-08-14T13:41:10;22.60;86.70
40589;DHT22;26297;49.450;6.640;2022-08-14T13:44:14;22.60;93.70
40589;DHT22;26297;49.450;6.640;2022-08-14T13:47:28;22.70;90.40
40589;DHT22;26297;49.450;6.640;2022-08-14T13:50:33;23.00;69.80
40589;DHT22;26297;49.450;6.640;2022-08-14T13:53:43;23.30;68.70
40589;DHT22;26297;49.450;6.640;2022-08-14T13:56:46;23.40;67.60
40589;DHT22;26297;49.450;6.640;2022-08-14T13:59:50;23.50;70.20
40589;DHT22;26297;49.450;6.640;2022-08-14T14:02:56;23.40;84.40
40589;DHT22;26297;49.450;6.640;2022-08-14T14:06:01;23.30;94.50
40589;DHT22;26297;49.450;6.640;2022-08-14T14:09:05;23.30;79.70
40589;DHT22;26297;49.450;6.640;2022-08-14T14:12:10;23.30;84.20
40589;DHT22;26297;49.450;6.640;2022-08-14T14:15:17;23.40;71.30
40589;DHT22;26297;49.450;6.640;2022-08-14T14:18:24;23.40;74.10
40589;DHT22;26297;49.450;6.640;2022-08-14T14:21:30;23.30;80.20
40589;DHT22;26297;49.450;6.640;2022-08-14T14:24:34;23.10;89.30
40589;DHT22;26297;49.450;6.640;2022-08-14T14:27:39;23.10;84.10
40589;DHT22;26297;49.450;6.640;2022-08-14T14:30:45;23.10;76.70
40589;DHT22;26297;49.450;6.640;2022-08-14T14:33:58;23.10;77.40
40589;DHT22;26297;49.450;6.640;2022-08-14T14:37:03;23.10;79.70
40589;DHT22;26297;49.450;6.640;2022-08-14T14:40:09;22.90;90.00
40589;DHT22;26297;49.450;6.640;2022-08-14T14:43:15;22.80;81.00
40589;DHT22;26297;49.450;6.640;2022-08-14T14:46:20;22.70;81.20
40589;DHT22;26297;49.450;6.640;2022-08-14T14:49:26;22.60;90.20
40589;DHT22;26297;49.450;6.640;2022-08-14T14:52:33;22.70;92.80
40589;DHT22;26297;49.450;6.640;2022-08-14T14:55:37;22.60;85.20
40589;DHT22;26297;49.450;6.640;2022-08-14T14:58:43;22.80;85.90
40589;DHT22;26297;49.450;6.640;2022-08-14T15:01:49;22.80;87.90
40589;DHT22;26297;49.450;6.640;2022-08-14T15:04:55;22.80;96.50
40589;DHT22;26297;49.450;6.640;2022-08-14T15:07:59;22.90;97.80
40589;DHT22;26297;49.450;6.640;2022-08-14T15:11:02;22.80;89.70
40589;DHT22;26297;49.450;6.640;2022-08-14T15:14:06;22.80;89.20
40589;DHT22;26297;49.450;6.640;2022-08-14T15:17:09;22.60;84.00
40589;DHT22;26297;49.450;6.640;2022-08-14T15:20:14;22.60;90.00
40589;DHT22;26297;49.450;6.640;2022-08-14T15:23:17;22.80;81.80
40589;DHT22;26297;49.450;6.640;2022-08-14T15:26:20;22.80;94.20
40589;DHT22;26297;49.450;6.640;2022-08-14T15:29:24;22.90;95.70
40589;DHT22;26297;49.450;6.640;2022-08-14T15:32:28;22.80;81.40
40589;DHT22;26297;49.450;6.640;2022-08-14T15:35:31;22.70;84.80
40589;DHT22;26297;49.450;6.640;2022-08-14T15:38:36;22.70;94.50
40589;DHT22;26297;49.450;6.640;2022-08-14T15:41:52;22.60;92.50
40589;DHT22;26297;49.450;6.640;2022-08-14T15:44:55;22.50;86.10
40589;DHT22;26297;49.450;6.640;2022-08-14T15:47:59;22.50;87.40
40589;DHT22;26297;49.450;6.640;2022-08-14T15:51:04;22.50;93.20
40589;DHT22;26297;49.450;6.640;2022-08-14T15:54:07;22.50;93.60
40589;DHT22;26297;49.450;6.640;2022-08-14T15:57:10;22.50;87.10
40589;DHT22;26297;49.450;6.640;2022-08-14T16:00:15;22.50;97.00
40589;DHT22;26297;49.450;6.640;2022-08-14T16:03:37;22.50;98.20
40589;DHT22;26297;49.450;6.640;2022-08-14T16:06:41;22.60;99.90
40589;DHT22;26297;49.450;6.640;2022-08-14T16:09:44;22.60;95.80
40589;DHT22;26297;49.450;6.640;2022-08-14T16:12:47;22.60;90.10
40589;DHT22;26297;49.450;6.640;2022-08-14T16:15:52;22.60;99.90
40589;DHT22;26297;49.450;6.640;2022-08-14T16:18:56;22.60;94.00
40589;DHT22;26297;49.450;6.640;2022-08-14T16:22:03;22.70;96.50
40589;DHT22;26297;49.450;6.640;2022-08-14T16:25:08;22.70;99.30
40589;DHT22;26297;49.450;6.640;2022-08-14T16:28:11;22.70;95.60
40589;DHT22;26297;49.450;6.640;2022-08-14T16:31:16;22.70;90.50
40589;DHT22;26297;49.450;6.640;2022-08-14T16:34:20;22.70;94.60
40589;DHT22;26297;49.450;6.640;2022-08-14T16:37:23;22.80;90.00
40589;DHT22;26297;49.450;6.640;2022-08-14T16:40:27;22.80;83.20
40589;DHT22;26297;49.450;6.640;2022-08-14T16:43:30;22.70;93.90
40589;DHT22;26297;49.450;6.640;2022-08-14T16:46:36;22.80;95.80
40589;DHT22;26297;49.450;6.640;2022-08-14T16:49:42;22.80;93.20
40589;DHT22;26297;49.450;6.640;2022-08-14T16:52:46;22.80;92.90
40589;DHT22;26297;49.450;6.640;2022-08-14T16:56:11;22.90;96.70
40589;DHT22;26297;49.450;6.640;2022-08-14T16:59:17;23.00;92.90
40589;DHT22;26297;49.450;6.640;2022-08-14T17:02:36;23.00;90.60
40589;DHT22;26297;49.450;6.640;2022-08-14T17:05:42;23.00;93.00
40589;DHT22;26297;49.450;6.640;2022-08-14T17:08:47;23.10;89.60
40589;DHT22;26297;49.450;6.640;2022-08-14T17:18:08;23.00;96.10
40589;DHT22;26297;49.450;6.640;2022-08-14T17:21:29;22.90;95.90
40589;DHT22;26297;49.450;6.640;2022-08-14T17:24:32;22.90;95.10
40589;DHT22;26297;49.450;6.640;2022-08-14T17:27:36;22.90;95.10
40589;DHT22;26297;49.450;6.640;2022-08-14T17:30:53;22.90;93.10
40589;DHT22;26297;49.450;6.640;2022-08-14T17:33:56;22.90;95.70
40589;DHT22;26297;49.450;6.640;2022-08-14T17:37:01;22.90;96.90
40589;DHT22;26297;49.450;6.640;2022-08-14T17:40:19;22.90;99.40
40589;DHT22;26297;49.450;6.640;2022-08-14T17:43:28;22.90;99.00
40589;DHT22;26297;49.450;6.640;2022-08-14T17:46:38;23.00;90.60
40589;DHT22;26297;49.450;6.640;2022-08-14T17:49:48;23.10;91.30
40589;DHT22;26297;49.450;6.640;2022-08-14T17:52:51;23.10;97.50
40589;DHT22;26297;49.450;6.640;2022-08-14T17:55:54;23.00;98.70
40589;DHT22;26297;49.450;6.640;2022-08-14T17:59:02;23.00;99.90
40589;DHT22;26297;49.450;6.640;2022-08-14T18:02:07;22.90;98.70
40589;DHT22;26297;49.450;6.640;2022-08-14T18:05:11;22.90;99.50
40589;DHT22;26297;49.450;6.640;2022-08-14T18:08:14;22.90;96.50
40589;DHT22;26297;49.450;6.640;2022-08-14T18:11:18;22.90;94.60
40589;DHT22;26297;49.450;6.640;2022-08-14T18:14:27;22.80;97.50
40589;DHT22;26297;49.450;6.640;2022-08-14T18:17:38;22.90;94.70
40589;DHT22;26297;49.450;6.640;2022-08-14T18:20:45;22.90;99.90
40589;DHT22;26297;49.450;6.640;2022-08-14T18:23:55;22.90;96.60
40589;DHT22;26297;49.450;6.640;2022-08-14T18:27:09;23.00;97.40
40589;DHT22;26297;49.450;6.640;2022-08-14T18:30:22;22.80;93.80
40589;DHT22;26297;49.450;6.640;2022-08-14T18:33:27;22.80;99.90
40589;DHT22;26297;49.450;6.640;2022-08-14T18:36:52;22.80;99.30
40589;DHT22;26297;49.450;6.640;2022-08-14T18:43:43;22.80;99.90
40589;DHT22;26297;49.450;6.640;2022-08-14T18:50:13;22.70;96.50
40589;DHT22;26297;49.450;6.640;2022-08-14T18:53:16;22.70;96.60
40589;DHT22;26297;49.450;6.640;2022-08-14T19:06:41;22.50;99.90
40589;DHT22;26297;49.450;6.640;2022-08-14T19:12:59;22.60;99.90
40589;DHT22;26297;49.450;6.640;2022-08-14T19:19:14;22.60;99.90
40589;DHT22;26297;49.450;6.640;2022-08-14T19:22:28;22.70;99.90
40589;DHT22;26297;49.450;6.640;2022-08-14T19:25:51;22.70;99.90
40589;DHT22;26297;49.450;6.640;2022-08-14T19:28:56;22.70;97.80
40589;DHT22;26297;49.450;6.640;2022-08-14T19:32:02;22.60;96.60
40589;DHT22;26297;49.450;6.640;2022-08-14T19:41:54;22.50;96.80
40589;DHT22;26297;49.450;6.640;2022-08-14T19:44:58;22.50;97.30
40589;DHT22;26297;49.450;6.640;2022-08-14T19:48:01;22.50;99.90
40589;DHT22;26297;49.450;6.640;2022-08-14T19:51:06;22.50;99.90
40589;DHT22;26297;49.450;6.640;2022-08-14T19:54:10;22.50;99.90
40589;DHT22;26297;49.450;6.640;2022-08-14T19:57:23;22.60;99.90
40589;DHT22;26297;49.450;6.640;2022-08-14T20:00:27;22.60;99.60
40589;DHT22;26297;49.450;6.640;2022-08-14T20:03:45;22.60;99.90
40589;DHT22;26297;49.450;6.640;2022-08-14T20:06:53;22.60;99.90
40589;DHT22;26297;49.450;6.640;2022-08-14T20:09:57;22.70;99.90
40589;DHT22;26297;49.450;6.640;2022-08-14T20:13:03;22.70;99.90
40589;DHT22;26297;49.450;6.640;2022-08-14T20:16:08;22.70;99.90
40589;DHT22;26297;49.450;6.640;2022-08-14T20:19:16;22.70;99.90
40589;DHT22;26297;49.450;6.640;2022-08-14T20:22:31;22.70;99.90